Rio Rico, AZ

11:48 PM MST on October 22, 2014 (GMT -0700)
TrailsHead at Barrio de Tubac | Change Station
CLOSE
Current Station
Personal Weather Station
Location: Tubac, AZ
Elevation: 3222 ft
Nearby Weather Stations

Elev 3222 ft 31.60 °N, 111.05 °W | Updated 27 seconds ago

Clear
Clear
55.1 °F
Feels Like 55.1 °F
N
1.6
Wind Variable Wind from SSE
Gusts 3.0 mph

Today
High -- | Low -- °F
--% Chance of Precip.
Yesterday
High -- | Low -- °F
Precip. -- in
6:32 AM 5:44 PM
Waning Crescent, 0% visible
Pressure 30.11 in
Visibility 10.0 miles
Clouds Clear
Dew Point 49 °F
Humidity 79%
Rainfall 0.00 in
Snow Depth Not available.
UV 0 out of 12
Pollen 5.30 out of 12
Air Quality Not available.
Flu Activity No Activity
METAR KOLS 230554Z AUTO 05004KT 10SM CLR 14/07 A3011 RMK AO2 SLPNO T01390072 10267 20133 53009

More Conditions Fewer Conditions

Pressure 30.11 in
Visibility 10.0 miles
Clouds Clear
Dew Point 49 °F
Humidity 79%
Rainfall 0.00 in
Snow Depth Not available.
UV 0 out of 12
Pollen 5.30 out of 12
Air Quality Not available.
Flu Activity No Activity
METAR KOLS 230554Z AUTO 05004KT 10SM CLR 14/07 A3011 RMK AO2 SLPNO T01390072 10267 20133 53009

More Conditions Fewer Conditions

10-Day Weather Forecast

Almanac

Astronomy

Oct. 22, 2014 Rise Set
Actual Time 6:32 AM MST 5:44 PM MST
Civil Twilight 6:07 AM MST 6:09 PM MST
Nautical Twilight 5:39 AM MST 6:37 PM MST
Astronomical Twilight 5:11 AM MST 7:05 PM MST
Moon 5:21 AM MST (10/22) 5:10 PM MST (10/22)
Length of Visible Light 12h 01m
Length of Day
11h 12m
Tomorrow will be 1m 47s shorter.
Waning Crescent, 0% of the Moon is Illuminated
Oct 23
Waning Crescent
Oct 23
New
Oct 30
First Quarter
Nov 6
Full
Nov 14
Last Quarter

Community

WunderPhotos

Upload Photos

1,764,194 photos uploaded!

Nearby

Snow Depth

Station Depth Elevation
Workman Creek 0 in 6900 ft
Wildcat 0 in 7850 ft
Hannagan Meadows 1 in 9020 ft
Beaver Head 1 in 7990 ft
Maverick Fork 1 in 9200 ft

Earthquake Activity

City Distance Mag. Time & Date
No recent earthquake activity has been reported nearby.
Minimum magnitude displayed is 2.5.

Coastal Water Temperatures

Place Temperature
No Stations Reporting

Nearby Weather Stations